Time;durP1;ratioP1;P1;durP2;ratioP2;P2;SDS_P1;SDS_P2;PMS_P1;PMS_P2;Temp;Humidity;BMP_temperature;BMP_pressure;BME280_temperature;BME280_humidity;BME280_pressure;Samples;Min_cycle;Max_cycle;Signal;HPM_P1;HPM_P2
2022/01/24 00:01:27;;;;;;;;;37.00;33.50;;;;;-147.17;100.00;50460.16;5007506;28;51230;-60
2022/01/24 00:03:56;;;;;;;;;38.50;32.25;;;;;-147.17;100.00;50493.63;5016598;28;51199;-60
2022/01/24 00:06:25;;;;;;;;;42.75;35.25;;;;;-147.17;100.00;50485.75;5014075;28;52325;-60
2022/01/24 00:08:51;;;;;;;;;38.25;35.00;;;;;-147.17;100.00;50475.91;5011920;28;51187;-60
2022/01/24 00:11:20;;;;;;;;;36.25;32.50;;;;;-147.17;100.00;50450.31;5012434;28;51203;-60
2022/01/24 00:16:45;;;;;;;;;38.75;35.00;;;;;-147.17;100.00;50477.88;5015131;28;51102;-60
2022/01/24 00:27:07;;;;;;;;;33.00;28.50;;;;;-147.17;100.00;50493.63;5012518;28;51097;-61
2022/01/24 00:29:32;;;;;;;;;41.50;35.75;;;;;-147.17;100.00;50473.94;5012694;28;51595;-60
2022/01/24 00:31:58;;;;;;;;;37.25;36.50;;;;;-147.17;100.00;50491.66;5010366;28;51188;-59
2022/01/24 00:34:23;;;;;;;;;31.75;27.25;;;;;-147.17;100.00;50456.22;5014143;28;51313;-60
2022/01/24 00:36:51;;;;;;;;;29.25;26.25;;;;;-147.17;100.00;50493.63;5003520;28;51451;-60
2022/01/24 00:39:16;;;;;;;;;36.50;35.75;;;;;-147.17;100.00;50471.97;5010372;28;52680;-60
2022/01/24 00:42:14;;;;;;;;;33.75;31.75;;;;;-147.17;100.00;50470.00;5011677;28;51186;-60
2022/01/24 00:47:14;;;;;;;;;35.25;30.00;;;;;-147.17;100.00;50489.69;5005309;28;51430;-60
2022/01/24 00:55:07;;;;;;;;;32.50;27.00;;;;;-147.17;100.00;50462.13;5009158;28;51094;-60
2022/01/24 00:57:32;;;;;;;;;31.25;28.25;;;;;-147.17;100.00;50481.81;5016182;28;51318;-59
2022/01/24 00:59:59;;;;;;;;;28.50;26.50;;;;;-147.17;100.00;50460.16;5010638;28;52223;-60
2022/01/24 01:02:24;;;;;;;;;35.50;31.50;;;;;-147.17;100.00;50462.13;5009452;28;51244;-60
2022/01/24 01:07:31;;;;;;;;;35.25;30.50;;;;;-147.17;100.00;50485.75;5016254;28;51270;-60
2022/01/24 01:18:17;;;;;;;;;27.00;26.00;;;;;-147.17;100.00;50481.81;5014670;28;51348;-60
2022/01/24 01:21:25;;;;;;;;;30.75;29.25;;;;;-147.17;100.00;50460.16;5009128;28;51837;-60
2022/01/24 01:23:33;;;;;;;;;36.50;31.00;;;;;-147.17;100.00;50450.31;5005265;28;51824;-60
2022/01/24 01:26:03;;;;;;;;;31.25;26.75;;;;;-147.17;100.00;50470.00;5012731;28;51181;-60
2022/01/24 01:28:29;;;;;;;;;38.50;35.50;;;;;-147.17;100.00;50481.81;5011623;28;51295;-60
2022/01/24 01:30:59;;;;;;;;;34.25;30.75;;;;;-147.17;100.00;50470.00;5009216;28;51656;-60
2022/01/24 01:39:37;;;;;;;;;23.50;22.75;;;;;-147.17;100.00;50462.13;5011952;28;51123;-60
2022/01/24 01:52:58;;;;;;;;;34.50;31.25;;;;;-147.17;100.00;50473.94;5015241;28;51509;-60
2022/01/24 01:57:33;;;;;;;;;29.75;29.00;;;;;-147.17;100.00;50493.63;5007896;28;51229;-59
2022/01/24 01:59:58;;;;;;;;;28.50;23.75;;;;;-147.17;100.00;50454.25;5015180;28;51387;-59
2022/01/24 02:02:23;;;;;;;;;33.25;28.75;;;;;-147.17;100.00;50442.44;5014855;28;51785;-59
2022/01/24 02:04:49;;;;;;;;;24.25;23.75;;;;;-147.17;100.00;50477.88;5006559;28;51165;-59
2022/01/24 02:07:16;;;;;;;;;31.50;28.25;;;;;-147.17;100.00;50452.28;5018059;28;51836;-59
2022/01/24 02:09:44;;;;;;;;;33.25;31.25;;;;;-147.17;100.00;50470.00;5011809;28;51391;-58
2022/01/24 02:12:11;;;;;;;;;35.25;32.00;;;;;-147.17;100.00;50450.31;5015403;28;52080;-59
2022/01/24 02:14:41;;;;;;;;;33.75;31.75;;;;;-147.17;100.00;50481.81;5011001;28;51226;-61
2022/01/24 02:17:13;;;;;;;;;33.25;30.25;;;;;-147.17;100.00;50466.06;5008777;28;52599;-59
2022/01/24 02:20:04;;;;;;;;;34.50;32.00;;;;;-147.17;100.00;50477.88;5014002;28;51198;-59
2022/01/24 02:22:46;;;;;;;;;26.00;25.00;;;;;-147.17;100.00;50458.19;5008533;28;52343;-60
2022/01/24 02:25:25;;;;;;;;;20.50;18.50;;;;;-147.17;100.00;50438.50;5002470;28;51254;-59
2022/01/24 02:27:56;;;;;;;;;31.75;30.00;;;;;-147.17;100.00;50454.25;5009136;28;51247;-60
2022/01/24 02:33:02;;;;;;;;;35.50;30.25;;;;;-147.17;100.00;50454.25;5015361;28;52024;-59
2022/01/24 02:35:28;;;;;;;;;29.50;28.00;;;;;-147.17;100.00;50432.59;5028114;28;52132;-59
2022/01/24 02:37:55;;;;;;;;;25.75;24.00;;;;;-147.17;100.00;50450.31;5009350;28;51118;-59
2022/01/24 02:40:22;;;;;;;;;31.75;31.25;;;;;-147.17;100.00;50418.81;5012030;28;51102;-59
2022/01/24 02:48:30;;;;;;;;;32.50;30.50;;;;;-147.17;100.00;50456.22;5015994;28;51301;-61
2022/01/24 02:51:15;;;;;;;;;22.50;20.75;;;;;-147.17;100.00;50448.34;5012596;28;51147;-60
2022/01/24 02:53:41;;;;;;;;;34.25;33.25;;;;;-147.17;100.00;50414.88;5021855;28;51865;-60
2022/01/24 02:56:07;;;;;;;;;34.00;31.75;;;;;-147.17;100.00;50446.38;5018074;28;51187;-60
2022/01/24 02:58:33;;;;;;;;;37.25;31.50;;;;;-147.17;100.00;50442.44;5012388;28;51138;-60
2022/01/24 03:00:59;;;;;;;;;41.00;34.00;;;;;-147.17;100.00;50438.50;5016028;28;51308;-60
2022/01/24 03:03:24;;;;;;;;;30.00;27.50;;;;;-147.17;100.00;50456.22;5020381;28;52211;-60
2022/01/24 03:05:50;;;;;;;;;31.50;28.75;;;;;-147.17;100.00;50452.28;5012075;28;51352;-59
2022/01/24 03:08:15;;;;;;;;;38.25;33.75;;;;;-147.17;100.00;50448.34;5008431;28;51288;-60
2022/01/24 03:10:46;;;;;;;;;35.00;31.50;;;;;-147.17;100.00;50428.66;5011873;28;51345;-60
2022/01/24 03:15:40;;;;;;;;;32.00;30.50;;;;;-147.17;100.00;50458.19;5009091;28;51523;-60
2022/01/24 03:18:07;;;;;;;;;36.75;31.25;;;;;-147.17;100.00;50468.03;5010886;28;51185;-59
2022/01/24 03:20:34;;;;;;;;;35.25;32.75;;;;;-147.17;100.00;50446.38;5014614;28;52874;-59
2022/01/24 03:23:00;;;;;;;;;35.50;30.50;;;;;-147.17;100.00;50458.19;5016610;28;52429;-59
2022/01/24 03:25:27;;;;;;;;;38.50;32.75;;;;;-147.17;100.00;50446.38;5017137;28;51959;-59
2022/01/24 03:27:52;;;;;;;;;34.50;32.25;;;;;-147.17;100.00;50452.28;5015599;28;52269;-59
2022/01/24 03:30:18;;;;;;;;;36.25;31.75;;;;;-147.17;100.00;50456.22;5010619;28;51744;-60
2022/01/24 03:32:43;;;;;;;;;33.00;31.25;;;;;-147.17;100.00;50442.44;5021273;28;52390;-60
2022/01/24 03:35:09;;;;;;;;;33.00;30.75;;;;;-147.17;100.00;50442.44;5013970;28;51544;-60
2022/01/24 03:37:35;;;;;;;;;38.00;32.25;;;;;-147.17;100.00;50446.38;5014485;28;51268;-60
2022/01/24 03:40:02;;;;;;;;;33.50;31.00;;;;;-147.17;100.00;50462.13;5012788;28;51105;-60
2022/01/24 03:42:27;;;;;;;;;37.25;31.00;;;;;-147.17;100.00;50458.19;5006994;28;52495;-60
2022/01/24 03:44:57;;;;;;;;;39.00;30.50;;;;;-147.17;100.00;50446.38;5014714;28;51115;-60
2022/01/24 03:50:05;;;;;;;;;37.25;29.25;;;;;-147.17;100.00;50434.56;5005575;28;51147;-60
2022/01/24 03:52:30;;;;;;;;;27.75;26.75;;;;;-147.17;100.00;50450.31;5015072;28;52159;-60
2022/01/24 03:54:57;;;;;;;;;30.50;27.25;;;;;-147.17;100.00;50430.63;5015254;28;51280;-60
2022/01/24 03:57:23;;;;;;;;;22.00;18.25;;;;;-147.17;100.00;50462.13;5016509;28;51047;-60
2022/01/24 03:59:49;;;;;;;;;33.50;30.75;;;;;-147.17;100.00;50446.38;5012754;28;51324;-60
2022/01/24 04:02:16;;;;;;;;;38.50;33.50;;;;;-147.17;100.00;50442.44;5010462;28;54146;-60
2022/01/24 04:04:42;;;;;;;;;33.75;30.25;;;;;-147.17;100.00;50446.38;5014230;28;51091;-60
2022/01/24 04:07:07;;;;;;;;;37.25;33.25;;;;;-147.17;100.00;50473.94;5015539;28;51152;-60
2022/01/24 04:09:34;;;;;;;;;34.75;28.75;;;;;-147.17;100.00;50468.03;5015613;28;51349;-60
2022/01/24 04:12:01;;;;;;;;;34.50;30.50;;;;;-147.17;100.00;50462.13;5014539;28;51852;-60
2022/01/24 04:14:40;;;;;;;;;37.50;25.75;;;;;-147.17;100.00;50471.97;5007396;28;51190;-60
2022/01/24 04:22:17;;;;;;;;;33.00;25.25;;;;;-147.17;100.00;50458.19;5015092;28;51270;-60
2022/01/24 04:24:44;;;;;;;;;29.50;24.25;;;;;-147.17;100.00;50448.34;5016304;28;51149;-60
2022/01/24 04:27:10;;;;;;;;;28.75;25.50;;;;;-147.17;100.00;50466.06;5005987;28;51115;-59
2022/01/24 04:29:36;;;;;;;;;39.00;31.25;;;;;-147.17;100.00;50428.66;5017749;28;51348;-60
2022/01/24 04:32:02;;;;;;;;;27.50;25.50;;;;;-147.17;100.00;50446.38;5012396;28;51875;-60
2022/01/24 04:34:28;;;;;;;;;36.00;32.50;;;;;-147.17;100.00;50458.19;5009384;28;51582;-60
2022/01/24 04:36:53;;;;;;;;;31.25;29.25;;;;;-147.17;100.00;50466.06;5019352;28;51888;-61
2022/01/24 04:39:19;;;;;;;;;30.75;29.75;;;;;-147.17;100.00;50430.63;5014474;28;51110;-60
2022/01/24 04:41:48;;;;;;;;;36.25;31.50;;;;;-147.17;100.00;50422.75;5013961;28;51315;-59
2022/01/24 04:54:45;;;;;;;;;36.50;31.75;;;;;-147.17;100.00;50438.50;5013990;28;51152;-58
2022/01/24 04:57:20;;;;;;;;;36.25;33.50;;;;;-147.17;100.00;50422.75;5019242;28;51143;-58
2022/01/24 04:59:48;;;;;;;;;29.25;27.00;;;;;-147.17;100.00;50424.72;5005693;28;52469;-59
2022/01/24 05:02:15;;;;;;;;;34.00;29.00;;;;;-147.17;100.00;50444.41;5005496;28;51908;-59
2022/01/24 05:04:40;;;;;;;;;34.00;32.00;;;;;-147.17;100.00;50468.03;5015559;28;51565;-58
2022/01/24 05:07:06;;;;;;;;;33.50;28.50;;;;;-147.17;100.00;50434.56;5011698;28;51165;-58
2022/01/24 05:09:41;;;;;;;;;33.00;30.75;;;;;-147.17;100.00;50454.25;5009297;28;51205;-59
2022/01/24 05:12:16;;;;;;;;;28.25;27.25;;;;;-147.17;100.00;50458.19;5010206;28;51912;-59
2022/01/24 05:25:38;;;;;;;;;34.50;31.25;;;;;-147.17;100.00;50473.94;5018271;28;51163;-59
2022/01/24 05:28:03;;;;;;;;;34.50;32.50;;;;;-147.17;100.00;50452.28;5006288;28;51378;-58
2022/01/24 05:30:29;;;;;;;;;33.50;31.75;;;;;-147.17;100.00;50456.22;5009463;28;51284;-59
2022/01/24 05:32:54;;;;;;;;;36.25;30.75;;;;;-147.17;100.00;50454.25;5009515;28;53060;-59
2022/01/24 05:35:19;;;;;;;;;31.75;30.25;;;;;-147.17;100.00;50468.03;5010085;28;51256;-59
2022/01/24 05:37:45;;;;;;;;;36.50;30.00;;;;;-147.17;100.00;50442.44;5014707;28;51529;-59
2022/01/24 05:40:10;;;;;;;;;31.75;28.75;;;;;-147.17;100.00;50464.09;5004950;28;51130;-59
2022/01/24 05:42:36;;;;;;;;;42.50;31.50;;;;;-147.17;100.00;50450.31;5004814;28;52677;-59
2022/01/24 05:45:03;;;;;;;;;34.75;31.75;;;;;-147.17;100.00;50483.78;5008222;28;51189;-60
2022/01/24 05:47:29;;;;;;;;;34.25;30.50;;;;;-147.17;100.00;50458.19;5009442;28;51026;-59
2022/01/24 05:49:54;;;;;;;;;38.25;30.50;;;;;-147.17;100.00;50454.25;5014263;28;52371;-59
2022/01/24 05:52:19;;;;;;;;;36.75;33.00;;;;;-147.17;100.00;50458.19;5005901;28;51689;-60
2022/01/24 05:54:45;;;;;;;;;30.75;26.75;;;;;-147.17;100.00;50434.56;5006413;28;51204;-60
2022/01/24 05:57:10;;;;;;;;;35.25;32.50;;;;;-147.17;100.00;50426.69;5012250;28;52010;-62
2022/01/24 05:59:37;;;;;;;;;40.25;35.75;;;;;-147.17;100.00;50422.75;5009080;28;51615;-59
2022/01/24 06:02:04;;;;;;;;;36.50;34.25;;;;;-147.17;100.00;50454.25;5009551;28;52348;-59
2022/01/24 06:04:29;;;;;;;;;38.00;34.00;;;;;-147.17;100.00;50450.31;5010066;28;51167;-59
2022/01/24 06:06:55;;;;;;;;;37.25;33.00;;;;;-147.17;100.00;50448.34;5005505;28;51258;-60
2022/01/24 06:09:20;;;;;;;;;25.25;21.00;;;;;-147.17;100.00;50434.56;5011427;28;51268;-62
2022/01/24 06:11:46;;;;;;;;;33.25;32.25;;;;;-147.17;100.00;50442.44;5011141;28;51298;-60
2022/01/24 06:14:11;;;;;;;;;36.25;30.50;;;;;-147.17;100.00;50432.59;5011791;28;51165;-60
2022/01/24 06:16:37;;;;;;;;;37.25;36.50;;;;;-147.17;100.00;50432.59;5010243;28;51377;-60
2022/01/24 06:19:03;;;;;;;;;34.00;32.00;;;;;-147.17;100.00;50444.41;5014453;28;51244;-60
2022/01/24 06:21:28;;;;;;;;;37.00;33.75;;;;;-147.17;100.00;50454.25;5012417;28;53521;-60
2022/01/24 06:23:53;;;;;;;;;38.50;34.50;;;;;-147.17;100.00;50446.38;5011207;28;51234;-60
2022/01/24 06:26:19;;;;;;;;;37.75;36.25;;;;;-147.17;100.00;50424.72;5014227;28;51709;-59
2022/01/24 06:28:44;;;;;;;;;32.50;30.75;;;;;-147.17;100.00;50391.25;5016785;28;51284;-60
2022/01/24 06:31:10;;;;;;;;;35.75;32.25;;;;;-147.17;100.00;50424.72;5009483;28;51106;-60
2022/01/24 06:33:35;;;;;;;;;35.75;29.75;;;;;-147.17;100.00;50432.59;5011503;28;51287;-60
2022/01/24 06:36:01;;;;;;;;;30.75;29.25;;;;;-147.17;100.00;50444.41;5007343;28;51622;-60
2022/01/24 06:38:26;;;;;;;;;24.50;19.50;;;;;-147.17;100.00;50450.31;5014011;28;51206;-60
2022/01/24 06:40:52;;;;;;;;;42.50;38.00;;;;;-147.17;100.00;50450.31;5016737;28;51943;-61
2022/01/24 06:43:17;;;;;;;;;33.25;30.00;;;;;-147.17;100.00;50426.69;5009946;28;52649;-62
2022/01/24 06:45:43;;;;;;;;;41.25;37.50;;;;;-147.17;100.00;50430.63;5016342;28;52601;-61
2022/01/24 06:48:09;;;;;;;;;41.00;36.75;;;;;-147.17;100.00;50448.34;5020586;28;51193;-60
2022/01/24 06:50:35;;;;;;;;;40.00;36.00;;;;;-147.17;100.00;50407.00;5015385;28;51890;-60
2022/01/24 06:53:00;;;;;;;;;36.25;30.50;;;;;-147.17;100.00;50422.75;5015265;28;51250;-62
2022/01/24 06:55:25;;;;;;;;;41.50;36.75;;;;;-147.17;100.00;50424.72;5020200;28;51946;-61
2022/01/24 06:57:51;;;;;;;;;42.25;35.00;;;;;-147.17;100.00;50448.34;5013565;28;51221;-61
2022/01/24 07:00:16;;;;;;;;;29.50;28.75;;;;;-147.17;100.00;50481.81;5010534;28;51860;-60
2022/01/24 07:02:42;;;;;;;;;40.25;37.25;;;;;-147.17;100.00;50444.41;5010450;28;52688;-60
2022/01/24 07:05:07;;;;;;;;;38.75;33.00;;;;;-147.17;100.00;50438.50;5010598;28;51160;-61
2022/01/24 07:07:33;;;;;;;;;34.50;33.00;;;;;-147.17;100.00;50444.41;5019038;28;51084;-61
2022/01/24 07:09:59;;;;;;;;;32.25;28.75;;;;;-147.17;100.00;50444.41;5016334;28;52067;-61
2022/01/24 07:12:25;;;;;;;;;38.00;36.50;;;;;-147.17;100.00;50470.00;5010723;28;51023;-60
2022/01/24 07:14:51;;;;;;;;;35.75;33.00;;;;;-147.17;100.00;50458.19;5014457;28;51062;-59
2022/01/24 07:19:51;;;;;;;;;32.00;31.00;;;;;-147.17;100.00;50430.63;5017318;28;51929;-59
2022/01/24 07:22:16;;;;;;;;;40.50;33.75;;;;;-147.17;100.00;50446.38;5008329;28;51150;-60
2022/01/24 07:24:43;;;;;;;;;33.25;30.75;;;;;-147.17;100.00;50466.06;5008121;28;51295;-61
2022/01/24 07:27:08;;;;;;;;;36.75;36.25;;;;;-147.17;100.00;50446.38;5025266;28;50951;-59
2022/01/24 07:29:34;;;;;;;;;28.75;28.00;;;;;-147.17;100.00;50440.47;5018837;28;51029;-60
2022/01/24 07:31:59;;;;;;;;;37.00;34.50;;;;;-147.17;100.00;50450.31;5017273;28;52319;-61
2022/01/24 07:34:25;;;;;;;;;35.50;33.50;;;;;-147.17;100.00;50458.19;5014159;28;51201;-59
2022/01/24 07:36:51;;;;;;;;;27.75;23.75;;;;;-147.17;100.00;50454.25;5008257;28;51704;-60
2022/01/24 07:39:17;;;;;;;;;35.75;32.25;;;;;-147.17;100.00;50428.66;5015964;28;52042;-59
2022/01/24 07:41:46;;;;;;;;;39.00;33.00;;;;;-147.17;100.00;50442.44;5010729;28;51091;-60
2022/01/24 07:44:14;;;;;;;;;39.25;36.50;;;;;-147.17;100.00;50460.16;5010829;28;51344;-59
2022/01/24 07:46:40;;;;;;;;;31.25;29.50;;;;;-147.17;100.00;50454.25;5011920;28;51247;-62
2022/01/24 07:49:10;;;;;;;;;42.00;36.75;;;;;-147.17;100.00;50481.81;5027366;28;51827;-60
2022/01/24 07:51:35;;;;;;;;;35.00;29.75;;;;;-147.17;100.00;50446.38;5030599;28;51038;-60
2022/01/24 07:54:01;;;;;;;;;37.50;34.75;;;;;-147.17;100.00;50438.50;5021430;28;52039;-58
2022/01/24 07:56:26;;;;;;;;;34.00;33.50;;;;;-147.17;100.00;50460.16;5024490;28;51419;-58
2022/01/24 07:58:52;;;;;;;;;34.50;32.50;;;;;-147.17;100.00;50454.25;5027925;28;51240;-57
2022/01/24 08:01:19;;;;;;;;;36.00;33.50;;;;;-147.17;100.00;50442.44;5020516;28;51092;-57
2022/01/24 08:03:44;;;;;;;;;29.75;29.75;;;;;-147.17;100.00;50458.19;5024378;28;51146;-58
2022/01/24 08:06:10;;;;;;;;;37.75;33.75;;;;;-147.17;100.00;50434.56;5029598;28;51148;-58
2022/01/24 08:08:35;;;;;;;;;37.50;33.25;;;;;-147.17;100.00;50446.38;5018147;28;52216;-57
2022/01/24 08:11:01;;;;;;;;;38.75;35.25;;;;;-147.17;100.00;50436.53;5016412;28;51336;-59
2022/01/24 08:13:26;;;;;;;;;27.25;27.00;;;;;-147.17;100.00;50450.31;5025361;28;50922;-58
2022/01/24 08:15:51;;;;;;;;;33.25;30.00;;;;;-147.17;100.00;50432.59;5026501;28;51189;-61
2022/01/24 08:18:17;;;;;;;;;30.25;28.00;;;;;-147.17;100.00;50442.44;5016443;28;52374;-60
2022/01/24 08:20:42;;;;;;;;;32.50;29.25;;;;;-147.17;100.00;50448.34;5015863;28;51320;-59
2022/01/24 08:23:09;;;;;;;;;22.50;21.25;;;;;-147.17;100.00;50456.22;5030586;28;51437;-59
2022/01/24 08:25:34;;;;;;;;;34.50;33.50;;;;;-147.17;100.00;50458.19;5025008;28;51256;-62
2022/01/24 08:28:00;;;;;;;;;32.75;32.00;;;;;-147.17;100.00;50458.19;5025635;28;50986;-61
2022/01/24 08:30:26;;;;;;;;;42.50;37.25;;;;;-147.17;100.00;50448.34;5015339;28;51090;-61
2022/01/24 08:32:51;;;;;;;;;30.50;27.00;;;;;-147.17;100.00;50473.94;5019549;28;51057;-61
2022/01/24 08:35:19;;;;;;;;;31.00;27.75;;;;;-147.17;100.00;50446.38;5018183;28;51298;-60
2022/01/24 08:37:45;;;;;;;;;35.00;33.00;;;;;-147.17;100.00;50458.19;5030793;28;52960;-62
2022/01/24 08:40:21;;;;;;;;;26.50;21.25;;;;;-147.17;100.00;50466.06;5023771;28;51185;-60
2022/01/24 08:42:57;;;;;;;;;35.50;28.00;;;;;-147.17;100.00;50456.22;5028946;28;51152;-60
2022/01/24 08:45:46;;;;;;;;;36.50;31.50;;;;;-147.17;100.00;50473.94;5019799;28;51355;-61
2022/01/24 08:48:13;;;;;;;;;36.25;31.75;;;;;-147.17;100.00;50477.88;5028831;28;51704;-62
2022/01/24 08:50:40;;;;;;;;;30.00;27.25;;;;;-147.17;100.00;50458.19;5021183;28;51153;-61
2022/01/24 08:53:06;;;;;;;;;34.00;31.75;;;;;-147.17;100.00;50501.50;5031664;28;51269;-61
2022/01/24 08:55:36;;;;;;;;;34.50;32.50;;;;;-147.17;100.00;50454.25;5024875;28;51117;-61
2022/01/24 08:58:03;;;;;;;;;45.50;36.00;;;;;-147.17;100.00;50450.31;5013414;28;51193;-60
2022/01/24 09:00:29;;;;;;;;;36.75;30.25;;;;;-147.17;100.00;50458.19;5016623;28;51316;-61
2022/01/24 09:02:54;;;;;;;;;33.50;32.50;;;;;-147.17;100.00;50470.00;5024553;28;51081;-59
2022/01/24 09:05:24;;;;;;;;;37.75;32.25;;;;;-147.17;100.00;50493.63;5032799;28;51043;-59
2022/01/24 09:07:53;;;;;;;;;37.50;35.50;;;;;-147.17;100.00;50497.56;5029211;28;51065;-60
2022/01/24 09:10:19;;;;;;;;;32.50;28.25;;;;;-147.17;100.00;50489.69;5012036;28;52419;-61
2022/01/24 09:12:45;;;;;;;;;31.25;25.00;;;;;-147.17;100.00;50485.75;5012898;28;51511;-61
2022/01/24 09:15:11;;;;;;;;;40.25;34.00;;;;;-147.17;100.00;50489.69;5025499;28;51713;-61
2022/01/24 09:17:36;;;;;;;;;38.00;35.50;;;;;-147.17;100.00;50485.75;5015087;28;51933;-60
2022/01/24 09:20:03;;;;;;;;;36.50;35.50;;;;;-147.17;100.00;50489.69;5021843;28;51168;-60
2022/01/24 09:22:29;;;;;;;;;46.50;38.00;;;;;-147.17;100.00;50515.28;5015003;28;51137;-60
2022/01/24 09:24:54;;;;;;;;;35.75;32.25;;;;;-147.17;100.00;50509.38;5024570;28;51349;-60
2022/01/24 09:27:20;;;;;;;;;36.50;32.25;;;;;-147.17;100.00;50477.88;5025456;28;51720;-60
2022/01/24 09:29:46;;;;;;;;;39.00;34.00;;;;;-147.17;100.00;50501.50;5022965;28;51077;-60
2022/01/24 09:32:11;;;;;;;;;35.50;33.25;;;;;-147.17;100.00;50505.44;5031294;28;51274;-60
2022/01/24 09:34:37;;;;;;;;;33.25;31.25;;;;;-147.17;100.00;50489.69;5026560;28;51340;-60
2022/01/24 09:37:02;;;;;;;;;38.75;36.25;;;;;-147.17;100.00;50507.41;5026861;28;52227;-60
2022/01/24 09:39:28;;;;;;;;;41.00;36.25;;;;;-147.17;100.00;50505.44;5017982;28;51327;-60
2022/01/24 09:41:54;;;;;;;;;33.75;31.50;;;;;-147.17;100.00;50509.38;5026377;28;51328;-60
2022/01/24 09:44:20;;;;;;;;;37.50;32.75;;;;;-147.17;100.00;50477.88;5020313;28;51157;-60
2022/01/24 09:46:46;;;;;;;;;38.50;34.75;;;;;-147.17;100.00;50529.06;5021023;28;51894;-61
2022/01/24 09:49:12;;;;;;;;;40.75;36.00;;;;;-147.17;100.00;50473.94;5013989;28;50984;-59
2022/01/24 09:51:37;;;;;;;;;36.50;34.50;;;;;-147.17;100.00;50544.81;5015937;28;51230;-61
2022/01/24 09:54:05;;;;;;;;;35.00;33.25;;;;;-147.17;100.00;50534.97;5026437;28;51447;-61
2022/01/24 09:56:31;;;;;;;;;37.00;33.00;;;;;-147.17;100.00;50521.19;5017219;28;52678;-61
2022/01/24 09:58:57;;;;;;;;;44.50;37.75;;;;;-147.17;100.00;50548.75;5023155;28;52548;-61
2022/01/24 10:01:23;;;;;;;;;43.25;35.00;;;;;-147.17;100.00;50562.53;5012629;28;51252;-60
2022/01/24 10:04:10;;;;;;;;;36.75;33.75;;;;;-147.17;100.00;50554.66;5027504;28;50917;-60
2022/01/24 10:07:03;;;;;;;;;40.25;37.50;;;;;-147.17;100.00;50558.59;5027987;28;51868;-61
2022/01/24 10:09:30;;;;;;;;;38.50;35.25;;;;;-147.17;100.00;50548.75;5020714;28;51229;-61
2022/01/24 10:12:12;;;;;;;;;41.50;38.00;;;;;-147.17;100.00;50554.66;5027114;28;51199;-61
2022/01/24 10:17:29;;;;;;;;;47.00;41.25;;;;;-147.17;100.00;50540.88;5019973;28;51139;-60
2022/01/24 10:19:55;;;;;;;;;38.50;29.75;;;;;-147.17;100.00;50515.28;5019823;28;51094;-60
2022/01/24 10:22:23;;;;;;;;;42.25;37.50;;;;;-147.17;100.00;50509.38;5030803;28;51236;-60
2022/01/24 10:24:53;;;;;;;;;41.50;38.50;;;;;-147.17;100.00;50515.28;5021316;28;51688;-60
2022/01/24 10:27:28;;;;;;;;;50.25;39.00;;;;;-147.17;100.00;50531.03;5024980;28;51094;-60
2022/01/24 10:30:04;;;;;;;;;39.00;37.25;;;;;-147.17;100.00;50536.94;5009557;28;51259;-60
2022/01/24 10:32:44;;;;;;;;;42.00;38.00;;;;;-147.17;100.00;50540.88;5030780;28;51071;-60
2022/01/24 10:35:38;;;;;;;;;38.00;36.25;;;;;-147.17;100.00;50548.75;5018197;28;51133;-60
2022/01/24 10:41:10;;;;;;;;;37.75;35.25;;;;;-147.17;100.00;50548.75;5020421;28;51140;-61
2022/01/24 10:43:38;;;;;;;;;41.50;38.50;;;;;-147.17;100.00;50536.94;5026337;28;51257;-61
2022/01/24 10:46:06;;;;;;;;;42.00;37.25;;;;;-147.17;100.00;50603.88;5019824;28;51493;-61
2022/01/24 10:48:34;;;;;;;;;46.75;40.00;;;;;-147.17;100.00;50582.22;5025058;28;51972;-61
2022/01/24 10:51:06;;;;;;;;;44.25;36.75;;;;;-147.17;100.00;50544.81;5021794;28;51123;-60
2022/01/24 10:53:39;;;;;;;;;43.75;38.00;;;;;-147.17;100.00;50576.31;5024420;28;51153;-60
2022/01/24 10:56:24;;;;;;;;;40.25;36.00;;;;;-147.17;100.00;50570.41;5019129;28;52693;-61
2022/01/24 10:58:50;;;;;;;;;37.25;35.75;;;;;-147.17;100.00;50548.75;5027011;28;51157;-60
2022/01/24 11:01:16;;;;;;;;;39.00;35.00;;;;;-147.17;99.45;50568.44;5021812;28;51089;-60
2022/01/24 11:03:42;;;;;;;;;32.00;29.50;;;;;-147.17;100.00;50572.38;5023937;28;51060;-60
2022/01/24 11:06:07;;;;;;;;;33.50;31.75;;;;;-147.17;100.00;50556.63;5019896;28;51540;-60
2022/01/24 11:08:32;;;;;;;;;34.00;30.75;;;;;-147.17;100.00;50546.78;5029040;28;51068;-61
2022/01/24 11:10:58;;;;;;;;;36.25;33.25;;;;;-147.17;100.00;50574.34;5018047;28;51094;-60
2022/01/24 11:13:30;;;;;;;;;27.50;26.50;;;;;-147.17;99.98;50603.88;5016746;28;51150;-61
2022/01/24 11:15:58;;;;;;;;;37.50;33.75;;;;;-147.17;99.08;50599.94;5022411;28;51011;-61
2022/01/24 11:18:24;;;;;;;;;34.75;31.25;;;;;-147.17;99.77;50588.13;5025299;28;51053;-59
2022/01/24 11:20:50;;;;;;;;;34.75;31.50;;;;;-147.17;100.00;50538.91;5025365;28;51051;-59
2022/01/24 11:23:21;;;;;;;;;32.00;31.75;;;;;-147.17;100.00;50576.31;5025548;28;51223;-60
2022/01/24 11:25:49;;;;;;;;;32.75;28.00;;;;;-147.17;100.00;50627.50;5024540;28;52517;-61
2022/01/24 11:28:15;;;;;;;;;36.25;32.75;;;;;-147.17;93.86;50735.78;5017723;28;51917;-60
2022/01/24 11:31:02;;;;;;;;;33.25;32.25;;;;;-147.17;91.79;50749.56;5022993;28;51105;-60
2022/01/24 11:33:34;;;;;;;;;32.50;30.00;;;;;-147.17;90.65;50737.75;5028885;28;51032;-61
2022/01/24 11:36:07;;;;;;;;;36.50;34.00;;;;;-147.17;90.50;50767.28;5023521;28;51130;-61
2022/01/24 11:38:38;;;;;;;;;36.50;32.25;;;;;-147.17;88.95;50769.25;5014958;28;51975;-60
2022/01/24 11:41:33;;;;;;;;;33.25;32.25;;;;;-147.17;84.67;50867.69;5025860;28;51222;-60
2022/01/24 11:44:08;;;;;;;;;33.25;32.50;;;;;-147.17;84.65;50891.31;5030299;28;51727;-60
2022/01/24 11:46:49;;;;;;;;;31.50;28.75;;;;;-147.17;79.35;50981.88;5022442;28;51127;-60
2022/01/24 11:49:22;;;;;;;;;33.50;32.50;;;;;-147.17;73.99;51044.88;5017147;28;51860;-63
2022/01/24 11:52:14;;;;;;;;;35.75;33.25;;;;;-147.17;75.12;51056.69;5030711;28;50927;-61
2022/01/24 11:54:48;;;;;;;;;36.75;33.25;;;;;-147.17;68.82;51068.50;5018203;28;51641;-61
2022/01/24 11:57:40;;;;;;;;;36.25;34.00;;;;;-147.17;71.44;50999.59;5024472;28;51457;-61
2022/01/24 12:00:06;;;;;;;;;37.00;31.50;;;;;-147.17;75.17;50960.22;5014776;28;51331;-60
2022/01/24 12:02:39;;;;;;;;;36.25;33.75;;;;;-147.17;74.14;50922.81;5013141;28;51137;-59
2022/01/24 12:05:20;;;;;;;;;40.25;34.00;;;;;-147.17;70.75;50946.44;5029865;28;51079;-60
2022/01/24 12:08:01;;;;;;;;;34.25;33.50;;;;;-147.17;73.04;50905.09;5016576;28;51096;-60
2022/01/24 12:10:32;;;;;;;;;33.00;32.50;;;;;-147.17;75.38;50891.31;5028171;28;51346;-60
2022/01/24 12:13:06;;;;;;;;;36.75;34.00;;;;;-147.17;76.75;50848.00;5026566;28;51131;-61
2022/01/24 12:15:40;;;;;;;;;35.75;34.00;;;;;-147.17;77.17;50842.09;5018297;28;51325;-61
2022/01/24 12:18:28;;;;;;;;;46.25;34.75;;;;;-147.17;77.10;50851.94;5015002;28;51027;-60
2022/01/24 12:21:08;;;;;;;;;40.25;35.50;;;;;-147.17;77.54;50836.19;5013031;28;51169;-60
2022/01/24 12:23:36;;;;;;;;;32.00;29.00;;;;;-147.17;77.54;50887.38;5022804;28;51328;-60
2022/01/24 12:26:14;;;;;;;;;41.75;36.50;;;;;-147.17;76.15;50879.50;5019084;28;51250;-61
2022/01/24 12:28:42;;;;;;;;;40.50;36.25;;;;;-147.17;77.00;50836.19;5022775;28;51236;-60
2022/01/24 12:31:27;;;;;;;;;33.50;32.50;;;;;-147.17;76.85;50836.19;5023626;28;52340;-59
2022/01/24 12:33:53;;;;;;;;;40.50;36.75;;;;;-147.17;78.15;50855.88;5027132;28;51203;-59
2022/01/24 12:36:47;;;;;;;;;31.25;29.25;;;;;-147.17;77.68;50871.63;5019924;28;51006;-61
2022/01/24 12:39:16;;;;;;;;;45.00;37.25;;;;;-147.17;77.68;50851.94;5012366;28;50910;-59